Time;durP1;ratioP1;P1;durP2;ratioP2;P2;SDS_P1;SDS_P2;PMS_P1;PMS_P2;Temp;Humidity;BMP_temperature;BMP_pressure;BME280_temperature;BME280_humidity;BME280_pressure;Samples;Min_cycle;Max_cycle;Signal;HPM_P1;HPM_P2
2022/07/31 00:00:51;;;;;;;;;;;;;;;22.14;60.45;99996.47;5358481;32;35483;-72
2022/07/31 00:03:53;;;;;;;;;;;;;;;22.24;60.70;99994.63;5347831;32;34495;-71
2022/07/31 00:06:55;;;;;;;;;;;;;;;21.39;63.59;99999.84;5367165;32;35192;-71
2022/07/31 00:09:57;;;;;;;;;;;;;;;21.78;61.46;99990.88;5357938;32;35516;-73
2022/07/31 00:12:59;;;;;;;;;;;;;;;21.45;62.62;99989.44;5373728;32;44689;-71
2022/07/31 00:16:01;;;;;;;;;;;;;;;21.75;61.35;99990.28;5338848;32;34952;-72
2022/07/31 00:19:03;;;;;;;;;;;;;;;21.41;62.69;99980.00;5374457;32;35264;-73
2022/07/31 00:22:05;;;;;;;;;;;;;;;22.34;59.30;99982.06;5356036;32;35247;-72
2022/07/31 00:25:07;;;;;;;;;;;;;;;22.51;58.24;99969.75;5363702;32;35674;-73
2022/07/31 00:28:09;;;;;;;;;;;;;;;21.96;60.13;99974.94;5342016;32;35879;-72
2022/07/31 00:31:11;;;;;;;;;;;;;;;21.88;60.81;99982.81;5358137;32;35910;-73
2022/07/31 00:34:13;;;;;;;;;;;;;;;21.85;59.81;99983.13;5373384;32;36053;-72
2022/07/31 00:37:15;;;;;;;;;;;;;;;21.88;59.42;99986.34;5339303;32;34906;-72
2022/07/31 00:40:17;;;;;;;;;;;;;;;21.94;59.20;99989.44;5367025;32;35532;-73
2022/07/31 00:43:18;;;;;;;;;;;;;;;21.86;59.32;99998.19;5343200;32;34660;-72
2022/07/31 00:46:20;;;;;;;;;;;;;;;21.69;59.26;100004.22;5363707;32;37608;-74
2022/07/31 00:49:23;;;;;;;;;;;;;;;21.49;59.81;99998.88;5356294;32;36387;-72
2022/07/31 00:52:25;;;;;;;;;;;;;;;21.37;60.37;100003.47;5341745;32;35497;-72
2022/07/31 00:55:27;;;;;;;;;;;;;;;21.38;60.44;100004.31;5360052;32;44719;-71
2022/07/31 00:58:29;;;;;;;;;;;;;;;21.59;59.68;99993.53;5343794;32;37150;-72
2022/07/31 01:01:31;;;;;;;;;;;;;;;21.59;59.77;99998.88;5367131;32;35516;-72
2022/07/31 01:04:33;;;;;;;;;;;;;;;21.53;59.86;99999.44;5358496;32;35542;-69
2022/07/31 01:07:36;;;;;;;;;;;;;;;21.81;58.99;99987.06;5360149;32;34791;-71
2022/07/31 01:10:44;;;;;;;;;;;;;;;21.34;60.64;99992.25;5356764;32;35671;-73
2022/07/31 01:13:53;;;;;;;;;;;;;;;21.59;59.82;99998.88;5358716;32;35254;-72
2022/07/31 01:16:55;;;;;;;;;;;;;;;21.70;58.85;100006.75;5358193;32;35503;-73
2022/07/31 01:19:57;;;;;;;;;;;;;;;21.96;57.77;100004.38;5343701;32;37131;-73
2022/07/31 01:23:10;;;;;;;;;;;;;;;21.58;59.16;100013.25;5354490;32;44575;-73
2022/07/31 01:26:38;;;;;;;;;;;;;;;21.09;59.62;99998.91;5358076;32;36690;-73
2022/07/31 01:29:41;;;;;;;;;;;;;;;21.79;57.92;100005.09;5345703;32;35569;-73
2022/07/31 01:32:44;;;;;;;;;;;;;;;22.01;56.98;100010.13;5372600;32;34638;-73
2022/07/31 01:35:53;;;;;;;;;;;;;;;21.16;59.57;100015.22;5343983;32;36133;-73
2022/07/31 01:38:55;;;;;;;;;;;;;;;21.29;58.87;100021.22;5334029;32;35636;-72
2022/07/31 01:41:57;;;;;;;;;;;;;;;20.66;61.29;100021.38;5346833;32;37723;-72
2022/07/31 01:45:00;;;;;;;;;;;;;;;21.12;59.88;100016.47;5343347;32;34921;-73
2022/07/31 01:48:01;;;;;;;;;;;;;;;20.94;60.39;100014.47;5358743;32;34673;-73
2022/07/31 01:51:03;;;;;;;;;;;;;;;21.29;59.19;100013.19;5333714;32;35323;-73
2022/07/31 01:54:05;;;;;;;;;;;;;;;21.34;59.14;100009.13;5374548;32;36337;-72
2022/07/31 01:57:07;;;;;;;;;;;;;;;21.02;60.25;100006.63;5363882;32;35862;-73
2022/07/31 02:00:09;;;;;;;;;;;;;;;20.97;59.68;100008.00;5358634;32;37667;-73
2022/07/31 02:03:32;;;;;;;;;;;;;;;21.12;59.53;100008.47;5342423;32;45649;-74
2022/07/31 02:06:46;;;;;;;;;;;;;;;20.41;61.71;100005.75;5348686;32;35021;-71
2022/07/31 02:09:48;;;;;;;;;;;;;;;21.15;59.40;99997.50;5373761;32;35115;-72
2022/07/31 02:12:59;;;;;;;;;;;;;;;20.60;61.18;100007.69;5345017;32;44546;-72
2022/07/31 02:16:01;;;;;;;;;;;;;;;21.33;58.32;100006.59;5351262;32;36033;-71
2022/07/31 02:19:05;;;;;;;;;;;;;;;21.24;58.92;100010.03;5346553;32;34755;-71
2022/07/31 02:22:07;;;;;;;;;;;;;;;21.24;58.56;100004.69;5338372;32;35903;-71
2022/07/31 02:25:09;;;;;;;;;;;;;;;20.56;60.46;99999.13;5356179;32;34997;-71
2022/07/31 02:28:12;;;;;;;;;;;;;;;20.83;60.21;99986.03;5356546;32;35597;-71
2022/07/31 02:31:14;;;;;;;;;;;;;;;20.94;59.31;99989.59;5357010;32;35232;-71
2022/07/31 02:34:16;;;;;;;;;;;;;;;21.29;58.43;99984.63;5344050;32;35014;-72
2022/07/31 02:37:18;;;;;;;;;;;;;;;21.09;58.48;99986.37;5345366;32;35931;-71
2022/07/31 02:40:20;;;;;;;;;;;;;;;20.64;60.12;99977.09;5353612;32;35437;-72
2022/07/31 02:43:22;;;;;;;;;;;;;;;20.78;59.87;99982.91;5341792;32;36086;-72
2022/07/31 02:46:24;;;;;;;;;;;;;;;21.13;58.58;99986.13;5355510;32;36007;-72
2022/07/31 02:49:26;;;;;;;;;;;;;;;20.47;60.39;99984.75;5356411;32;35560;-73
2022/07/31 02:52:28;;;;;;;;;;;;;;;21.39;57.55;99984.66;5368308;32;44827;-73
2022/07/31 02:55:30;;;;;;;;;;;;;;;20.68;58.60;99984.72;5356880;32;34732;-72
2022/07/31 02:58:32;;;;;;;;;;;;;;;20.56;59.30;99985.78;5355651;32;36325;-72
2022/07/31 03:01:37;;;;;;;;;;;;;;;20.26;60.42;99986.56;5360061;32;35598;-72
2022/07/31 03:04:39;;;;;;;;;;;;;;;20.92;58.19;99978.16;5356205;32;35367;-72
2022/07/31 03:07:41;;;;;;;;;;;;;;;20.09;60.24;99989.81;5357747;32;35582;-72
2022/07/31 03:10:43;;;;;;;;;;;;;;;20.18;60.60;99989.91;5358079;32;36023;-71
2022/07/31 03:13:45;;;;;;;;;;;;;;;20.70;58.83;99985.41;5375808;32;35479;-72
2022/07/31 03:16:47;;;;;;;;;;;;;;;20.50;59.74;99992.50;5342392;32;35111;-72
2022/07/31 03:19:49;;;;;;;;;;;;;;;21.06;58.06;99986.69;5370019;32;36671;-73
2022/07/31 03:22:50;;;;;;;;;;;;;;;20.36;59.93;99984.81;5346073;32;36388;-72
2022/07/31 03:25:52;;;;;;;;;;;;;;;20.47;60.07;99984.75;5344001;32;35851;-72
2022/07/31 03:28:54;;;;;;;;;;;;;;;20.69;59.42;99974.88;5374674;32;35044;-73
2022/07/31 03:31:56;;;;;;;;;;;;;;;20.52;59.67;99977.19;5357500;32;34646;-73
2022/07/31 03:34:58;;;;;;;;;;;;;;;21.02;57.74;99982.56;5372481;32;43090;-72
2022/07/31 03:38:00;;;;;;;;;;;;;;;20.31;60.48;99984.34;5335990;32;34807;-73
2022/07/31 03:41:22;;;;;;;;;;;;;;;20.89;58.48;99971.28;5355588;32;36501;-71
2022/07/31 03:44:24;;;;;;;;;;;;;;;20.35;60.44;99979.56;5372637;32;36189;-72
2022/07/31 03:47:26;;;;;;;;;;;;;;;20.88;58.65;99974.94;5356899;32;36007;-71
2022/07/31 03:50:28;;;;;;;;;;;;;;;20.75;58.43;99971.66;5373381;32;44734;-71
2022/07/31 03:53:30;;;;;;;;;;;;;;;20.34;59.76;99976.06;5358829;32;35464;-72
2022/07/31 03:56:32;;;;;;;;;;;;;;;19.88;61.67;99982.66;5370022;32;35567;-72
2022/07/31 03:59:34;;;;;;;;;;;;;;;20.43;59.49;99983.31;5350091;32;36888;-73
2022/07/31 04:02:48;;;;;;;;;;;;;;;21.10;57.68;99985.41;5345003;32;35293;-72
2022/07/31 04:05:50;;;;;;;;;;;;;;;20.89;57.93;99983.81;5368570;32;34723;-73
2022/07/31 04:08:52;;;;;;;;;;;;;;;20.58;58.88;99982.97;5358553;32;35620;-71
2022/07/31 04:11:54;;;;;;;;;;;;;;;21.15;57.28;99984.16;5358875;32;35474;-71
2022/07/31 04:14:56;;;;;;;;;;;;;;;20.83;57.66;99993.19;5357632;32;36063;-72
2022/07/31 04:17:58;;;;;;;;;;;;;;;20.28;59.75;99993.44;5372485;32;44711;-73
2022/07/31 04:21:00;;;;;;;;;;;;;;;20.71;58.72;99992.44;5345208;32;36205;-72
2022/07/31 04:24:02;;;;;;;;;;;;;;;20.20;59.91;100003.94;5358522;32;35662;-73
2022/07/31 04:27:04;;;;;;;;;;;;;;;20.70;58.45;99993.44;5356308;32;34831;-72
2022/07/31 04:30:13;;;;;;;;;;;;;;;20.48;59.37;100001.59;5357793;32;35306;-72
2022/07/31 04:33:15;;;;;;;;;;;;;;;20.91;58.05;99997.84;5375028;32;36038;-72
2022/07/31 04:36:17;;;;;;;;;;;;;;;20.13;60.20;99999.25;5331262;32;35483;-72
2022/07/31 04:39:31;;;;;;;;;;;;;;;20.55;59.31;99997.44;5348541;32;44021;-71
2022/07/31 04:42:33;;;;;;;;;;;;;;;20.43;59.63;99996.66;5367586;32;35420;-72
2022/07/31 04:45:35;;;;;;;;;;;;;;;20.54;59.30;99993.06;5343472;32;36108;-72
2022/07/31 04:48:37;;;;;;;;;;;;;;;20.19;60.96;99998.75;5373554;32;34762;-73
2022/07/31 04:51:42;;;;;;;;;;;;;;;20.70;58.92;99988.09;5356177;32;35941;-73
2022/07/31 04:54:44;;;;;;;;;;;;;;;20.13;59.94;99988.59;5374180;32;35409;-71
2022/07/31 04:57:45;;;;;;;;;;;;;;;20.39;59.89;99975.69;5357740;32;35941;-72
2022/07/31 05:00:47;;;;;;;;;;;;;;;20.23;60.67;99989.50;5361279;32;35903;-72
2022/07/31 05:03:49;;;;;;;;;;;;;;;20.43;60.14;99982.47;5366606;32;36233;-72
2022/07/31 05:06:51;;;;;;;;;;;;;;;20.37;60.42;99994.50;5356718;32;35479;-74
2022/07/31 05:09:53;;;;;;;;;;;;;;;19.81;62.32;100012.63;5359487;32;35300;-73
2022/07/31 05:12:55;;;;;;;;;;;;;;;19.64;62.91;100008.69;5344666;32;35443;-73
2022/07/31 05:15:57;;;;;;;;;;;;;;;20.00;64.68;100004.78;5354775;32;34665;-73
2022/07/31 05:18:59;;;;;;;;;;;;;;;20.53;64.27;100015.41;5357982;32;44230;-73
2022/07/31 05:22:03;;;;;;;;;;;;;;;20.00;64.78;100018.97;5358024;32;35505;-72
2022/07/31 05:25:06;;;;;;;;;;;;;;;20.32;65.85;100011.88;5371837;32;36058;-70
2022/07/31 05:28:08;;;;;;;;;;;;;;;19.87;67.67;100022.78;5357575;32;34931;-71
2022/07/31 05:31:10;;;;;;;;;;;;;;;19.42;68.84;100015.78;5371021;32;37904;-71
2022/07/31 05:34:12;;;;;;;;;;;;;;;19.23;69.86;100023.56;5343878;32;36586;-72
2022/07/31 05:37:14;;;;;;;;;;;;;;;19.39;69.53;100018.69;5354141;32;36037;-73
2022/07/31 05:40:16;;;;;;;;;;;;;;;18.89;71.59;100015.62;5349746;32;35873;-72
2022/07/31 05:43:18;;;;;;;;;;;;;;;18.10;74.54;100032.44;5357508;32;36059;-70
2022/07/31 05:46:20;;;;;;;;;;;;;;;18.68;73.05;100017.34;5368012;32;35281;-72
2022/07/31 05:49:25;;;;;;;;;;;;;;;18.60;73.84;100017.03;5358601;32;35930;-73
2022/07/31 05:52:27;;;;;;;;;;;;;;;18.25;76.01;100020.63;5373146;32;35394;-70
2022/07/31 05:55:29;;;;;;;;;;;;;;;18.94;71.61;100017.94;5342678;32;44690;-70
2022/07/31 05:58:31;;;;;;;;;;;;;;;18.66;72.87;100006.78;5372866;32;35237;-72
2022/07/31 06:01:33;;;;;;;;;;;;;;;18.27;74.16;100012.50;5349834;32;35498;-72
2022/07/31 06:04:35;;;;;;;;;;;;;;;17.69;76.83;100020.41;5356989;32;35207;-71
2022/07/31 06:07:37;;;;;;;;;;;;;;;18.75;73.05;100021.19;5370822;32;34505;-71
2022/07/31 06:10:39;;;;;;;;;;;;;;;18.64;72.51;100013.19;5341157;32;35782;-72
2022/07/31 06:13:42;;;;;;;;;;;;;;;18.21;75.18;100011.16;5371168;32;36119;-71
2022/07/31 06:16:46;;;;;;;;;;;;;;;18.27;74.59;100015.19;5356918;32;35092;-71
2022/07/31 06:19:48;;;;;;;;;;;;;;;19.19;71.30;100023.00;5370182;32;35294;-73
2022/07/31 06:22:50;;;;;;;;;;;;;;;18.38;74.79;100009.87;5351641;32;35499;-72
2022/07/31 06:25:52;;;;;;;;;;;;;;;18.46;73.71;100022.59;5355048;32;34559;-72
2022/07/31 06:28:54;;;;;;;;;;;;;;;18.28;74.74;100012.38;5372621;32;36317;-72
2022/07/31 06:31:56;;;;;;;;;;;;;;;18.53;73.49;100021.13;5357171;32;35416;-72
2022/07/31 06:34:58;;;;;;;;;;;;;;;18.87;72.61;100022.91;5370449;32;45027;-72
2022/07/31 06:38:00;;;;;;;;;;;;;;;19.13;70.85;100019.97;5333901;32;35814;-73
2022/07/31 06:41:02;;;;;;;;;;;;;;;19.29;70.37;100017.75;5366184;32;35074;-72
2022/07/31 06:44:04;;;;;;;;;;;;;;;19.36;70.52;100004.78;5358691;32;35547;-72
2022/07/31 06:47:06;;;;;;;;;;;;;;;18.45;74.98;100020.91;5344721;32;36772;-72
2022/07/31 06:50:17;;;;;;;;;;;;;;;19.02;70.74;100015.50;5373982;32;35281;-72
2022/07/31 06:53:19;;;;;;;;;;;;;;;18.54;72.75;100020.16;5357141;32;37301;-73
2022/07/31 06:56:21;;;;;;;;;;;;;;;19.35;70.56;100027.06;5374406;32;35614;-71
2022/07/31 06:59:23;;;;;;;;;;;;;;;18.72;72.23;100023.25;5342446;32;36014;-73
2022/07/31 07:02:41;;;;;;;;;;;;;;;20.06;67.94;100016.78;5363843;32;35278;-72
2022/07/31 07:05:43;;;;;;;;;;;;;;;19.82;67.25;100014.34;5368579;32;35175;-72
2022/07/31 07:08:46;;;;;;;;;;;;;;;19.48;68.22;100001.94;5357386;32;35279;-71
2022/07/31 07:11:48;;;;;;;;;;;;;;;19.04;70.21;100008.22;5374783;32;35193;-72
2022/07/31 07:14:56;;;;;;;;;;;;;;;19.19;69.54;100019.44;5344789;32;36071;-72
2022/07/31 07:17:58;;;;;;;;;;;;;;;18.85;70.63;100010.66;5374961;32;44628;-72
2022/07/31 07:21:00;;;;;;;;;;;;;;;19.15;69.89;100010.03;5356591;32;36111;-73
2022/07/31 07:24:02;;;;;;;;;;;;;;;18.86;70.95;100001.69;5345328;32;35021;-72
2022/07/31 07:27:04;;;;;;;;;;;;;;;18.83;70.51;99994.81;5368979;32;34648;-72
2022/07/31 07:30:07;;;;;;;;;;;;;;;19.13;70.58;100001.31;5358111;32;36137;-71
2022/07/31 07:33:09;;;;;;;;;;;;;;;19.16;69.56;99993.06;5374641;32;35669;-72
2022/07/31 07:36:11;;;;;;;;;;;;;;;19.42;68.93;99990.94;5349834;32;36071;-73
2022/07/31 07:39:25;;;;;;;;;;;;;;;19.51;67.97;99986.66;5356283;32;35530;-72
2022/07/31 07:42:28;;;;;;;;;;;;;;;19.81;66.53;99997.50;5361242;32;36501;-72
2022/07/31 07:45:29;;;;;;;;;;;;;;;19.91;66.67;99979.75;5356791;32;44037;-72
2022/07/31 07:48:32;;;;;;;;;;;;;;;19.65;67.61;100007.75;5372573;32;35262;-73
2022/07/31 07:51:34;;;;;;;;;;;;;;;19.87;65.95;99993.47;5342783;32;34805;-73
2022/07/31 07:54:36;;;;;;;;;;;;;;;20.17;65.17;99993.53;5373756;32;34837;-72
2022/07/31 07:57:38;;;;;;;;;;;;;;;20.46;64.24;100000.91;5354674;32;36512;-73
2022/07/31 08:00:40;;;;;;;;;;;;;;;20.88;61.74;99993.66;5369714;32;35787;-69
2022/07/31 08:03:42;;;;;;;;;;;;;;;19.84;64.64;100010.59;5361859;32;35874;-72
2022/07/31 08:06:52;;;;;;;;;;;;;;;21.23;61.03;100003.84;5358046;32;35388;-73
2022/07/31 08:09:54;;;;;;;;;;;;;;;21.00;61.82;100003.25;5359550;32;35227;-72
2022/07/31 08:12:57;;;;;;;;;;;;;;;20.88;61.77;100020.34;5332307;32;35791;-71
2022/07/31 08:15:58;;;;;;;;;;;;;;;20.55;61.87;100024.16;5373640;32;45254;-72
2022/07/31 08:19:00;;;;;;;;;;;;;;;21.06;60.31;100010.72;5357275;32;34743;-73
2022/07/31 08:22:02;;;;;;;;;;;;;;;20.88;61.08;100027.53;5347485;32;35737;-72
2022/07/31 08:25:05;;;;;;;;;;;;;;;21.36;59.44;100030.34;5348827;32;35870;-72
2022/07/31 08:28:11;;;;;;;;;;;;;;;21.04;60.80;100036.72;5346025;32;35181;-72
2022/07/31 08:31:20;;;;;;;;;;;;;;;21.08;59.93;100032.78;5374616;32;36223;-73
2022/07/31 08:34:22;;;;;;;;;;;;;;;20.67;62.22;100049.75;5357221;32;35389;-73
2022/07/31 08:37:32;;;;;;;;;;;;;;;20.75;61.28;100049.12;5337265;32;45877;-71
2022/07/31 08:40:54;;;;;;;;;;;;;;;20.21;63.28;100055.47;5360341;32;36017;-71
2022/07/31 08:43:56;;;;;;;;;;;;;;;20.41;62.28;100051.97;5356991;32;34809;-72
2022/07/31 08:47:07;;;;;;;;;;;;;;;20.85;59.97;100044.66;5372883;32;44516;-72
2022/07/31 08:50:11;;;;;;;;;;;;;;;20.91;59.56;100046.78;5355789;32;35599;-73
2022/07/31 08:53:15;;;;;;;;;;;;;;;20.30;61.22;100044.03;5360558;32;35511;-73
2022/07/31 08:56:17;;;;;;;;;;;;;;;21.12;58.67;100049.38;5355529;32;36054;-74
2022/07/31 08:59:20;;;;;;;;;;;;;;;20.89;59.88;100048.75;5344366;32;34524;-72
2022/07/31 09:02:22;;;;;;;;;;;;;;;20.89;58.18;100039.91;5355654;32;34917;-70
2022/07/31 09:05:24;;;;;;;;;;;;;;;20.35;60.56;100057.84;5356444;32;35298;-70
2022/07/31 09:08:26;;;;;;;;;;;;;;;20.99;57.81;100052.28;5371569;32;35106;-72
2022/07/31 09:11:28;;;;;;;;;;;;;;;21.55;55.66;100056.28;5357259;32;44517;-71
2022/07/31 09:14:33;;;;;;;;;;;;;;;22.26;53.39;100062.25;5373551;32;35537;-73
2022/07/31 09:17:35;;;;;;;;;;;;;;;21.24;56.27;100068.84;5357494;32;35349;-72
2022/07/31 09:20:37;;;;;;;;;;;;;;;21.38;55.65;100065.81;5357438;32;35323;-72
2022/07/31 09:23:43;;;;;;;;;;;;;;;21.85;53.55;100071.41;5369425;32;35964;-73
2022/07/31 09:26:45;;;;;;;;;;;;;;;21.15;55.47;100077.69;5356320;32;36385;-73
2022/07/31 09:29:51;;;;;;;;;;;;;;;21.44;54.97;100077.78;5371483;32;36086;-72
2022/07/31 09:32:53;;;;;;;;;;;;;;;21.18;55.33;100080.91;5343411;32;35142;-72
2022/07/31 09:35:56;;;;;;;;;;;;;;;21.88;53.52;100087.16;5358630;32;35397;-71
2022/07/31 09:38:58;;;;;;;;;;;;;;;21.78;53.94;100094.34;5322319;32;38137;-72
2022/07/31 09:42:05;;;;;;;;;;;;;;;20.86;56.40;100099.75;5355283;32;35100;-71
2022/07/31 09:45:19;;;;;;;;;;;;;;;21.26;55.27;100093.63;5373352;32;35493;-73
2022/07/31 09:48:21;;;;;;;;;;;;;;;21.33;55.30;100090.28;5342273;32;35817;-73
2022/07/31 09:51:36;;;;;;;;;;;;;;;21.91;52.64;100081.53;5357961;32;43723;-73
2022/07/31 09:54:38;;;;;;;;;;;;;;;22.03;52.00;100077.75;5342555;32;36553;-72
2022/07/31 09:57:52;;;;;;;;;;;;;;;21.61;53.49;100069.94;5339758;32;38303;-72
2022/07/31 10:00:55;;;;;;;;;;;;;;;21.55;53.98;100077.69;5371060;32;36431;-72
2022/07/31 10:03:58;;;;;;;;;;;;;;;21.22;54.79;100073.47;5356109;32;35415;-73
2022/07/31 10:06:59;;;;;;;;;;;;;;;21.40;54.53;100069.22;5366389;32;44517;-72
2022/07/31 10:10:03;;;;;;;;;;;;;;;21.10;54.78;100076.25;5351645;32;34892;-71
2022/07/31 10:13:05;;;;;;;;;;;;;;;20.89;56.20;100086.16;5370977;32;36129;-71
2022/07/31 10:16:08;;;;;;;;;;;;;;;22.31;52.39;100102.00;5341593;32;35095;-73
2022/07/31 10:19:11;;;;;;;;;;;;;;;21.49;54.40;100094.28;5344811;32;35781;-72
2022/07/31 10:22:13;;;;;;;;;;;;;;;22.26;51.89;100082.81;5374098;32;36455;-71
2022/07/31 10:25:18;;;;;;;;;;;;;;;22.25;52.48;100084.66;5356529;32;35232;-72
2022/07/31 10:28:20;;;;;;;;;;;;;;;22.94;50.41;100080.87;5372375;32;34872;-72
2022/07/31 10:31:22;;;;;;;;;;;;;;;23.46;49.03;100082.03;5343384;32;35317;-73
2022/07/31 10:34:24;;;;;;;;;;;;;;;22.56;51.50;100104.06;5369830;32;36260;-71
2022/07/31 10:37:44;;;;;;;;;;;;;;;21.43;54.54;100092.13;5343213;32;35430;-72
2022/07/31 10:41:19;;;;;;;;;;;;;;;21.91;53.83;100089.56;5353994;32;35150;-73
2022/07/31 10:44:31;;;;;;;;;;;;;;;21.00;56.71;100098.59;5357170;32;35987;-73
2022/07/31 10:47:39;;;;;;;;;;;;;;;21.42;55.67;100085.09;5357425;32;36240;-74
2022/07/31 10:51:06;;;;;;;;;;;;;;;23.64;49.37;100074.06;5358955;32;35001;-73
2022/07/31 10:54:10;;;;;;;;;;;;;;;22.57;51.03;100094.19;5374133;32;37980;-72
2022/07/31 10:57:22;;;;;;;;;;;;;;;24.62;46.14;100083.00;5354186;32;35650;-73
2022/07/31 11:00:25;;;;;;;;;;;;;;;24.81;45.32;100079.25;5362030;32;35323;-73
2022/07/31 11:03:36;;;;;;;;;;;;;;;23.44;48.21;100085.84;5343678;32;45296;-71
2022/07/31 11:06:39;;;;;;;;;;;;;;;22.91;49.70;100098.09;5350739;32;35801;-73
2022/07/31 11:09:41;;;;;;;;;;;;;;;22.88;50.68;100102.91;5385379;32;36303;-73
2022/07/31 11:13:06;;;;;;;;;;;;;;;22.00;52.92;100119.97;5347254;32;37451;-72
2022/07/31 11:16:08;;;;;;;;;;;;;;;21.48;54.06;100108.63;5374333;32;33961;-72
2022/07/31 11:19:10;;;;;;;;;;;;;;;21.69;53.17;100111.19;5357513;32;34872;-73
2022/07/31 11:22:12;;;;;;;;;;;;;;;21.27;54.25;100128.22;5365042;32;36115;-72
2022/07/31 11:25:34;;;;;;;;;;;;;;;21.82;52.67;100106.44;5372469;32;46662;-71
2022/07/31 11:28:36;;;;;;;;;;;;;;;21.76;52.73;100117.69;5342159;32;35072;-71
2022/07/31 11:31:38;;;;;;;;;;;;;;;20.92;55.68;100131.28;5374269;32;35395;-71
2022/07/31 11:34:44;;;;;;;;;;;;;;;22.20;52.20;100129.75;5357520;32;36019;-74
2022/07/31 11:37:48;;;;;;;;;;;;;;;22.55;51.66;100131.00;5349941;32;35423;-71
2022/07/31 11:40:58;;;;;;;;;;;;;;;23.42;49.34;100133.44;5345632;32;44337;-73
2022/07/31 11:44:02;;;;;;;;;;;;;;;23.43;48.98;100141.31;5354959;32;35197;-71
2022/07/31 11:47:04;;;;;;;;;;;;;;;23.69;48.34;100135.28;5373172;32;35967;-72
2022/07/31 11:50:29;;;;;;;;;;;;;;;22.74;50.40;100133.66;5346548;32;35486;-72
2022/07/31 11:53:38;;;;;;;;;;;;;;;22.24;50.20;100149.91;5373425;32;44835;-72
2022/07/31 11:56:40;;;;;;;;;;;;;;;21.85;51.00;100135.59;5350471;32;36658;-71
2022/07/31 11:59:42;;;;;;;;;;;;;;;21.17;52.07;100137.16;5358015;32;35331;-72
2022/07/31 12:02:50;;;;;;;;;;;;;;;21.46;52.15;100132.84;5373344;32;38133;-72
2022/07/31 12:05:52;;;;;;;;;;;;;;;21.89;50.87;100126.28;5338971;32;35279;-71
2022/07/31 12:08:54;;;;;;;;;;;;;;;22.28;50.28;100139.72;5373120;32;36043;-73
2022/07/31 12:11:56;;;;;;;;;;;;;;;23.76;45.44;100125.66;5342992;32;36338;-73
2022/07/31 12:14:58;;;;;;;;;;;;;;;23.80;44.90;100135.09;5372613;32;44541;-72
2022/07/31 12:18:00;;;;;;;;;;;;;;;24.15;43.56;100139.66;5359543;32;35205;-72
2022/07/31 12:21:03;;;;;;;;;;;;;;;23.50;44.78;100133.53;5357623;32;35665;-73
2022/07/31 12:24:11;;;;;;;;;;;;;;;22.94;46.79;100131.81;5359541;32;35128;-71
2022/07/31 12:27:14;;;;;;;;;;;;;;;22.75;48.11;100127.31;5340628;32;34553;-73
2022/07/31 12:30:16;;;;;;;;;;;;;;;21.86;49.95;100145.31;5361023;32;35297;-72
2022/07/31 12:33:18;;;;;;;;;;;;;;;22.07;50.43;100139.84;5356907;32;34825;-72
2022/07/31 12:36:20;;;;;;;;;;;;;;;21.80;52.32;100143.19;5344457;32;35856;-71
2022/07/31 12:39:22;;;;;;;;;;;;;;;22.32;51.96;100143.84;5348935;32;37194;-72
2022/07/31 12:42:31;;;;;;;;;;;;;;;21.83;52.52;100153.59;5355326;32;37030;-73
2022/07/31 12:45:39;;;;;;;;;;;;;;;22.52;50.01;100147.34;5360743;32;36079;-71
2022/07/31 12:48:41;;;;;;;;;;;;;;;21.61;52.04;100174.25;5354906;32;35237;-74
2022/07/31 12:51:47;;;;;;;;;;;;;;;21.37;53.31;100163.03;5369969;32;36322;-73
2022/07/31 12:54:49;;;;;;;;;;;;;;;20.48;55.16;100167.09;5358071;32;34704;-73
2022/07/31 12:57:51;;;;;;;;;;;;;;;20.98;53.54;100153.94;5360510;32;35196;-72
2022/07/31 13:00:55;;;;;;;;;;;;;;;20.49;54.57;100168.81;5370517;32;36324;-71
2022/07/31 13:03:59;;;;;;;;;;;;;;;20.67;54.66;100177.09;5357207;32;35056;-72
2022/07/31 13:07:04;;;;;;;;;;;;;;;20.62;54.88;100160.62;5368743;32;44568;-74
2022/07/31 13:10:07;;;;;;;;;;;;;;;21.19;53.21;100167.28;5343976;32;36306;-71
2022/07/31 13:13:22;;;;;;;;;;;;;;;20.91;54.46;100175.00;5357237;32;35328;-71
2022/07/31 13:16:24;;;;;;;;;;;;;;;20.60;55.29;100178.56;5339739;32;35125;-75
2022/07/31 13:19:27;;;;;;;;;;;;;;;21.24;54.03;100171.25;5357499;32;37827;-73
2022/07/31 13:22:29;;;;;;;;;;;;;;;21.57;53.74;100161.28;5372418;32;46786;-72
2022/07/31 13:25:31;;;;;;;;;;;;;;;20.99;55.37;100169.84;5355068;32;35640;-70
2022/07/31 13:28:32;;;;;;;;;;;;;;;21.08;55.56;100169.06;5373351;32;34897;-71
2022/07/31 13:31:34;;;;;;;;;;;;;;;20.81;55.30;100180.28;5356840;32;35994;-71
2022/07/31 13:34:36;;;;;;;;;;;;;;;20.61;55.95;100169.59;5369496;32;36289;-72
2022/07/31 13:37:39;;;;;;;;;;;;;;;21.22;53.85;100148.31;5338718;32;37985;-70
2022/07/31 13:44:01;;;;;;;;;;;;;;;21.40;51.60;100152.09;5373180;32;44303;-72
2022/07/31 13:47:03;;;;;;;;;;;;;;;20.66;52.41;100159.37;5338123;32;35060;-72
2022/07/31 13:50:05;;;;;;;;;;;;;;;20.97;52.44;100166.47;5359633;32;36087;-71
2022/07/31 13:53:08;;;;;;;;;;;;;;;20.24;53.02;100154.81;5355764;32;35091;-74
2022/07/31 13:56:10;;;;;;;;;;;;;;;21.04;51.36;100151.59;5359828;32;35854;-71
2022/07/31 13:59:12;;;;;;;;;;;;;;;21.03;50.85;100149.91;5371806;32;34659;-72
2022/07/31 14:02:14;;;;;;;;;;;;;;;20.71;52.17;100178.53;5338560;32;34811;-72
2022/07/31 14:05:17;;;;;;;;;;;;;;;20.62;51.95;100163.28;5345524;32;36529;-73
2022/07/31 14:08:20;;;;;;;;;;;;;;;21.61;48.63;100174.25;5355322;32;35740;-72
2022/07/31 14:11:31;;;;;;;;;;;;;;;21.72;47.76;100165.28;5367965;32;44382;-74
2022/07/31 14:14:33;;;;;;;;;;;;;;;21.91;47.20;100169.84;5358478;32;35872;-72
2022/07/31 14:17:35;;;;;;;;;;;;;;;21.05;48.75;100171.97;5355196;32;35544;-71
2022/07/31 14:20:37;;;;;;;;;;;;;;;21.60;46.41;100172.56;5371868;32;35531;-72
2022/07/31 14:23:39;;;;;;;;;;;;;;;20.68;48.12;100176.13;5354607;32;35051;-71
2022/07/31 14:26:41;;;;;;;;;;;;;;;21.00;47.26;100162.69;5371824;32;36271;-72
2022/07/31 14:29:44;;;;;;;;;;;;;;;20.88;47.26;100188.63;5355928;32;35140;-74
2022/07/31 14:32:46;;;;;;;;;;;;;;;20.84;47.82;100189.87;5369727;32;35120;-71
2022/07/31 14:35:48;;;;;;;;;;;;;;;20.68;49.23;100179.66;5356177;32;36252;-71
2022/07/31 14:38:55;;;;;;;;;;;;;;;20.36;50.66;100194.81;5331991;32;34676;-73
2022/07/31 14:41:57;;;;;;;;;;;;;;;21.00;48.69;100200.09;5369384;32;37993;-73
2022/07/31 14:45:01;;;;;;;;;;;;;;;20.34;51.02;100192.25;5341893;32;34793;-71
2022/07/31 14:48:04;;;;;;;;;;;;;;;20.65;51.03;100197.72;5372765;32;36893;-72
2022/07/31 14:51:05;;;;;;;;;;;;;;;20.52;52.81;100189.91;5337928;32;35771;-73
2022/07/31 14:54:07;;;;;;;;;;;;;;;20.09;55.35;100204.09;5368132;32;35414;-72
2022/07/31 14:57:09;;;;;;;;;;;;;;;19.58;56.40;100182.47;5356326;32;35542;-71
2022/07/31 15:00:12;;;;;;;;;;;;;;;19.23;57.70;100183.41;5357083;32;34942;-72
2022/07/31 15:03:14;;;;;;;;;;;;;;;19.85;55.92;100168.75;5344088;32;34768;-73
2022/07/31 15:06:16;;;;;;;;;;;;;;;19.47;56.30;100170.84;5357116;32;35374;-72
2022/07/31 15:09:38;;;;;;;;;;;;;;;20.22;55.49;100169.25;5374211;32;38935;-72
2022/07/31 15:12:40;;;;;;;;;;;;;;;19.75;56.90;100165.97;5358032;32;35159;-72
2022/07/31 15:15:42;;;;;;;;;;;;;;;20.17;56.96;100163.47;5359610;32;35962;-71
2022/07/31 15:18:44;;;;;;;;;;;;;;;20.49;53.48;100150.97;5362161;32;34721;-72
2022/07/31 15:21:52;;;;;;;;;;;;;;;20.43;55.12;100148.78;5356603;32;34959;-73
2022/07/31 15:25:13;;;;;;;;;;;;;;;20.46;53.15;100161.06;5374627;32;35675;-71
2022/07/31 15:28:15;;;;;;;;;;;;;;;20.37;52.87;100149.31;5358502;32;36132;-73
2022/07/31 15:31:17;;;;;;;;;;;;;;;20.12;53.09;100144.31;5365979;32;34970;-71
2022/07/31 15:34:19;;;;;;;;;;;;;;;20.05;51.88;100132.47;5367456;32;34818;-72
2022/07/31 15:37:21;;;;;;;;;;;;;;;20.26;51.71;100142.19;5337732;32;37468;-72
2022/07/31 15:40:23;;;;;;;;;;;;;;;20.24;50.76;100136.13;5367836;32;36432;-71
2022/07/31 15:43:25;;;;;;;;;;;;;;;20.44;50.23;100134.47;5352238;32;35612;-73
2022/07/31 15:46:27;;;;;;;;;;;;;;;21.34;47.69;100133.91;5373727;32;35982;-72
2022/07/31 15:49:29;;;;;;;;;;;;;;;21.50;47.09;100130.72;5344298;32;44517;-72
2022/07/31 15:52:45;;;;;;;;;;;;;;;21.61;46.88;100134.12;5357443;32;34524;-73